Luke Air Force Base, AZ (85309)

12:27 PM MST en Mayo 25, 2015 (GMT -0700)
Rainbow Valley | | Change Station
CLOSE
Current Station
Estación meteorológica personal
Location: Buckeye, AZ
Altura: 945 ft
Estaciones meteorológicas cercanas

Alt 945 ft 33.32 °N, 112.49 °W | Updated 25 seconds ago

Despejado
Despejado
86.7 ° F
Sensación térmica 84 ° F
N
3.4
Viento Variable Viento desde SE
Gusts 4.9 mph

Hoy
Alta -- | Baja -- ° F
--% Posibilidad de precipitaciones
Ayer
Alta -- | Baja -- ° F
Precip. -- pul
5:24 AM 7:29 PM
Creciente, 51% visible
Presión 29.92 pul
Visibilidad 10.0 Millas
Nubes Baja 10000 ft
Baja 20000 ft
Índice de calor 84 ° F
Punto de rocío 47 ° F
Humedad 25%
Precipitaciones 0.00 pul
Espesor de la nieve No disponible.
UV 8.0 de una escala de 12
Polen 4.70 de una escala de 12
Calidad del aire No disponible.
Flu Activity Local Activity
METAR KGYR 251847Z 25010KT 10SM FEW100 FEW200 29/06 A2992

More Conditions Fewer Conditions

Presión 29.92 pul
Visibilidad 10.0 Millas
Nubes Baja 10000 ft
Baja 20000 ft
Índice de calor 84 ° F
Punto de rocío 47 ° F
Humedad 25%
Precipitaciones 0.00 pul
Espesor de la nieve No disponible.
UV 8.0 de una escala de 12
Polen 4.70 de una escala de 12
Calidad del aire No disponible.
Flu Activity Local Activity
METAR KGYR 251847Z 25010KT 10SM FEW100 FEW200 29/06 A2992

More Conditions Fewer Conditions

10-Day Weather Forecast

Almanac

Astronomía

May. 25, 2015 Salida Puesta
Hora real
Crepúsculo civil
Crepúsculo náutico
Crepúsculo astronómico
Luna
Horas de luz
Horas de luz
Tomorrow will be .
, % of the Moon is Illuminated

Extremos de hoy

Máximos del estado Bajos del estado

Community

WunderPhotos

Upload Photos

1,824,093 ¡fotos cargadas!

WunderBlogs® & News

Nearby

Calidad del aire

  Calidad del aire Índice AQ Contaminante
Not available.

Grosos de nieve

Estación Profundido Altura

Actividad de terremotos

Ciudad Distance Mag. Tiempo y dato
Magnitud mínima muestra es 2,5.

Temperaturas de aguas costeras

Lugar Temperatura

Stations

Estaciones meteorológicas cercanas

Ubicación de la estación Temp. Vientos helados Punto de rocío Humedad Viento Precip. Alt Actualizado Tipo